PWSweather.com
Personal Weather Stations
Station Observations
KKSTOPEK1
South Central , Topeka, KS 66611

South Central Topeka, KS 66611

Lat: 39.03, Lon: -95.71

Elevation: 945

Station Type: Davis Vantage Vue

http://tallgrasspixels.net/wx/wx.html

High Low Average
Temperature 57.2°F14.0°C 38.8°F3.8°C 46.8°F8.2°C
Dew Point 36.1°F2.3°C 24.8°F-4.0°C 31.1°F-0.5°C
Winds 6.7 mph 10.8 kmh Calm Calm 3.0 mph ESE4.8 kmh ESE
Wind Gusts 13.0 mph20.9 kmh -- 5.0 mph8.0 kmh
Humidity 74% 44% 55%
Pressure 30.16 in1021.3 mb 30.02 in1016.6 mb -
Precipitation 0.00 in0.0 mm - -
Hour Temp Dew Point Humidity Winds Wind Gusts Pressure Precip Precip Rate Daily Precip Total
12:00 AM 40.0°F4.4°C 24.7°F-4.1°C 54% 0.3 mph SE0.5 kmh SE 1.0 mph1.6 kmh 30.15 in1021.0 mb - 0.00 in0.0 mm 0.00 in0.0 mm
12:10 AM 39.9°F4.4°C 25.1°F-3.8°C 55% 0.6 mph ESE1.0 kmh ESE 2.0 mph3.2 kmh 30.14 in1020.7 mb - 0.00 in0.0 mm 0.00 in0.0 mm
12:20 AM 39.9°F4.4°C 25.5°F-3.6°C 56% 0.8 mph SE1.3 kmh SE 2.0 mph3.2 kmh 30.14 in1020.7 mb - 0.00 in0.0 mm 0.00 in0.0 mm
12:30 AM 39.8°F4.3°C 25.4°F-3.7°C 56% 1.2 mph ESE1.9 kmh ESE 5.0 mph8.0 kmh 30.13 in1020.3 mb - 0.00 in0.0 mm 0.00 in0.0 mm
12:40 AM 39.8°F4.3°C 25.4°F-3.7°C 56% 0.8 mph SE1.3 kmh SE 1.0 mph1.6 kmh 30.14 in1020.7 mb - 0.00 in0.0 mm 0.00 in0.0 mm
12:50 AM 39.8°F4.3°C 24.9°F-3.9°C 55% 1.0 mph ESE1.6 kmh ESE 1.0 mph1.6 kmh 30.13 in1020.3 mb - 0.00 in0.0 mm 0.00 in0.0 mm
01:00 AM 39.7°F4.3°C 24.8°F-4.0°C 55% 1.1 mph ESE1.8 kmh ESE 3.0 mph4.8 kmh 30.13 in1020.3 mb - 0.00 in0.0 mm 0.00 in0.0 mm
01:10 AM 39.6°F4.2°C 25.2°F-3.8°C 56% 0.5 mph SE0.8 kmh SE 3.0 mph4.8 kmh 30.13 in1020.3 mb - 0.00 in0.0 mm 0.00 in0.0 mm
01:20 AM 39.5°F4.2°C 25.6°F-3.6°C 57% 0.5 mph E0.8 kmh E 2.0 mph3.2 kmh 30.14 in1020.7 mb - 0.00 in0.0 mm 0.00 in0.0 mm
01:30 AM 39.5°F4.2°C 25.5°F-3.6°C 57% 1.0 mph SE1.6 kmh SE 2.0 mph3.2 kmh 30.13 in1020.3 mb - 0.00 in0.0 mm 0.00 in0.0 mm
01:40 AM 39.5°F4.2°C 25.5°F-3.6°C 57% 0.1 mph E0.2 kmh E 1.0 mph1.6 kmh 30.12 in1020.0 mb - 0.00 in0.0 mm 0.00 in0.0 mm
01:50 AM 39.3°F4.1°C 25.7°F-3.5°C 58% 0.5 mph SE0.8 kmh SE 1.0 mph1.6 kmh 30.12 in1020.0 mb - 0.00 in0.0 mm 0.00 in0.0 mm
02:00 AM 39.3°F4.1°C 25.3°F-3.7°C 57% 0.6 mph SE1.0 kmh SE 1.0 mph1.6 kmh 30.12 in1020.0 mb - 0.00 in0.0 mm 0.00 in0.0 mm
02:10 AM 39.3°F4.1°C 25.7°F-3.5°C 58% Calm Calm -- 30.12 in1020.0 mb - 0.00 in0.0 mm 0.00 in0.0 mm
02:20 AM 39.3°F4.1°C 25.3°F-3.7°C 57% 0.6 mph ESE1.0 kmh ESE 3.0 mph4.8 kmh 30.13 in1020.3 mb - 0.00 in0.0 mm 0.00 in0.0 mm
02:30 AM 39.3°F4.1°C 25.3°F-3.7°C 57% 0.2 mph S0.3 kmh S 1.0 mph1.6 kmh 30.13 in1020.3 mb - 0.00 in0.0 mm 0.00 in0.0 mm
02:40 AM 39.3°F4.1°C 25.7°F-3.5°C 58% 0.4 mph E0.6 kmh E 1.0 mph1.6 kmh 30.12 in1020.0 mb - 0.00 in0.0 mm 0.00 in0.0 mm
02:50 AM 39.3°F4.1°C 25.3°F-3.7°C 57% 0.8 mph SE1.3 kmh SE 2.0 mph3.2 kmh 30.12 in1020.0 mb - 0.00 in0.0 mm 0.00 in0.0 mm
03:00 AM 39.3°F4.1°C 25.3°F-3.7°C 57% 0.8 mph SE1.3 kmh SE 2.0 mph3.2 kmh 30.11 in1019.6 mb - 0.00 in0.0 mm 0.00 in0.0 mm
03:10 AM 39.3°F4.1°C 25.3°F-3.7°C 57% 1.1 mph SE1.8 kmh SE 2.0 mph3.2 kmh 30.11 in1019.6 mb - 0.00 in0.0 mm 0.00 in0.0 mm
03:20 AM 39.3°F4.1°C 25.3°F-3.7°C 57% 1.5 mph ESE2.4 kmh ESE 2.0 mph3.2 kmh 30.11 in1019.6 mb - 0.00 in0.0 mm 0.00 in0.0 mm
03:30 AM 39.3°F4.1°C 25.7°F-3.5°C 58% 1.0 mph SE1.6 kmh SE 1.0 mph1.6 kmh 30.11 in1019.6 mb - 0.00 in0.0 mm 0.00 in0.0 mm
03:40 AM 39.2°F4.0°C 25.6°F-3.6°C 58% 0.6 mph ESE1.0 kmh ESE 2.0 mph3.2 kmh 30.11 in1019.6 mb - 0.00 in0.0 mm 0.00 in0.0 mm
03:50 AM 39.3°F4.1°C 25.7°F-3.5°C 58% 0.4 mph ESE0.6 kmh ESE 1.0 mph1.6 kmh 30.11 in1019.6 mb - 0.00 in0.0 mm 0.00 in0.0 mm
04:00 AM 39.3°F4.1°C 25.4°F-3.7°C 57% 1.4 mph ESE2.3 kmh ESE 3.0 mph4.8 kmh 30.11 in1019.6 mb - 0.00 in0.0 mm 0.00 in0.0 mm
04:10 AM 39.4°F4.1°C 25.5°F-3.6°C 57% 1.9 mph SE3.1 kmh SE 4.0 mph6.4 kmh 30.10 in1019.3 mb - 0.00 in0.0 mm 0.00 in0.0 mm
04:20 AM 39.4°F4.1°C 25.4°F-3.7°C 57% 1.1 mph E1.8 kmh E 2.0 mph3.2 kmh 30.09 in1019.0 mb - 0.00 in0.0 mm 0.00 in0.0 mm
04:30 AM 39.5°F4.2°C 25.5°F-3.6°C 57% 1.8 mph ENE2.9 kmh ENE 5.0 mph8.0 kmh 30.09 in1019.0 mb - 0.00 in0.0 mm 0.00 in0.0 mm
04:40 AM 39.6°F4.2°C 25.6°F-3.6°C 57% 1.9 mph E3.1 kmh E 4.0 mph6.4 kmh 30.10 in1019.3 mb - 0.00 in0.0 mm 0.00 in0.0 mm
04:50 AM 39.7°F4.3°C 25.7°F-3.5°C 57% 2.4 mph E3.9 kmh E 6.0 mph9.7 kmh 30.10 in1019.3 mb - 0.00 in0.0 mm 0.00 in0.0 mm
05:00 AM 39.8°F4.3°C 25.8°F-3.4°C 57% 3.3 mph ESE5.3 kmh ESE 5.0 mph8.0 kmh 30.10 in1019.3 mb - 0.00 in0.0 mm 0.00 in0.0 mm
05:10 AM 39.9°F4.4°C 25.5°F-3.6°C 56% 2.3 mph ESE3.7 kmh ESE 5.0 mph8.0 kmh 30.10 in1019.3 mb - 0.00 in0.0 mm 0.00 in0.0 mm
05:20 AM 39.9°F4.4°C 25.9°F-3.4°C 57% 1.6 mph ESE2.6 kmh ESE 7.0 mph11.3 kmh 30.10 in1019.3 mb - 0.00 in0.0 mm 0.00 in0.0 mm
05:30 AM 40.0°F4.4°C 26.0°F-3.3°C 57% 0.9 mph ESE1.4 kmh ESE 2.0 mph3.2 kmh 30.10 in1019.3 mb - 0.00 in0.0 mm 0.00 in0.0 mm
05:40 AM 40.0°F4.4°C 26.0°F-3.3°C 57% 2.6 mph E4.2 kmh E 6.0 mph9.7 kmh 30.09 in1019.0 mb - 0.00 in0.0 mm 0.00 in0.0 mm
05:50 AM 40.0°F4.4°C 25.9°F-3.4°C 57% 1.8 mph ESE2.9 kmh ESE 3.0 mph4.8 kmh 30.10 in1019.3 mb - 0.00 in0.0 mm 0.00 in0.0 mm
06:00 AM 40.0°F4.4°C 26.0°F-3.3°C 57% 1.2 mph SE1.9 kmh SE 2.0 mph3.2 kmh 30.10 in1019.3 mb - 0.00 in0.0 mm 0.00 in0.0 mm
06:10 AM 39.9°F4.4°C 26.3°F-3.2°C 58% 2.0 mph E3.2 kmh E 6.0 mph9.7 kmh 30.11 in1019.6 mb - 0.00 in0.0 mm 0.00 in0.0 mm
06:20 AM 40.0°F4.4°C 26.4°F-3.1°C 58% 1.3 mph E2.1 kmh E 3.0 mph4.8 kmh 30.11 in1019.6 mb - 0.00 in0.0 mm 0.00 in0.0 mm
06:30 AM 40.0°F4.4°C 26.4°F-3.1°C 58% 2.6 mph E4.2 kmh E 6.0 mph9.7 kmh 30.12 in1020.0 mb - 0.00 in0.0 mm 0.00 in0.0 mm
06:40 AM 40.1°F4.5°C 26.1°F-3.3°C 57% 2.0 mph E3.2 kmh E 5.0 mph8.0 kmh 30.12 in1020.0 mb - 0.00 in0.0 mm 0.00 in0.0 mm
06:50 AM 40.2°F4.6°C 26.2°F-3.2°C 57% 2.1 mph NE3.4 kmh NE 4.0 mph6.4 kmh 30.12 in1020.0 mb - 0.00 in0.0 mm 0.00 in0.0 mm
07:00 AM 40.2°F4.6°C 26.6°F-3.0°C 58% 1.9 mph ESE3.1 kmh ESE 3.0 mph4.8 kmh 30.12 in1020.0 mb - 0.00 in0.0 mm 0.00 in0.0 mm
07:10 AM 39.7°F4.3°C 27.8°F-2.3°C 62% 1.7 mph E2.7 kmh E 5.0 mph8.0 kmh 30.13 in1020.3 mb - 0.00 in0.0 mm 0.00 in0.0 mm
07:20 AM 39.3°F4.1°C 28.1°F-2.2°C 64% 3.1 mph NE5.0 kmh NE 4.0 mph6.4 kmh 30.14 in1020.7 mb - 0.00 in0.0 mm 0.00 in0.0 mm
07:30 AM 39.2°F4.0°C 28.0°F-2.2°C 64% 3.3 mph SE5.3 kmh SE 6.0 mph9.7 kmh 30.13 in1020.3 mb - 0.00 in0.0 mm 0.00 in0.0 mm
07:40 AM 38.9°F3.8°C 28.1°F-2.2°C 65% 1.8 mph E2.9 kmh E 2.0 mph3.2 kmh 30.14 in1020.7 mb - 0.00 in0.0 mm 0.00 in0.0 mm
07:50 AM 38.9°F3.8°C 28.5°F-1.9°C 66% 1.7 mph ESE2.7 kmh ESE 3.0 mph4.8 kmh 30.14 in1020.7 mb - 0.00 in0.0 mm 0.00 in0.0 mm
08:00 AM 38.8°F3.8°C 28.0°F-2.2°C 65% 2.4 mph SE3.9 kmh SE 5.0 mph8.0 kmh 30.15 in1021.0 mb - 0.00 in0.0 mm 0.00 in0.0 mm
08:10 AM 39.0°F3.9°C 28.2°F-2.1°C 65% 2.4 mph SE3.9 kmh SE 4.0 mph6.4 kmh 30.15 in1021.0 mb - 0.00 in0.0 mm 0.00 in0.0 mm
08:20 AM 39.4°F4.1°C 28.2°F-2.1°C 64% 2.6 mph ESE4.2 kmh ESE 5.0 mph8.0 kmh 30.15 in1021.0 mb - 0.00 in0.0 mm 0.00 in0.0 mm
08:30 AM 39.9°F4.4°C 28.3°F-2.1°C 63% 2.8 mph E4.5 kmh E 7.0 mph11.3 kmh 30.15 in1021.0 mb - 0.00 in0.0 mm 0.00 in0.0 mm
08:40 AM 40.6°F4.8°C 28.6°F-1.9°C 62% 3.1 mph E5.0 kmh E 8.0 mph12.9 kmh 30.16 in1021.3 mb - 0.00 in0.0 mm 0.00 in0.0 mm
08:50 AM 41.0°F5.0°C 28.2°F-2.1°C 60% 4.3 mph ESE6.9 kmh ESE 10.0 mph16.1 kmh 30.16 in1021.3 mb - 0.00 in0.0 mm 0.00 in0.0 mm
09:00 AM 41.2°F5.1°C 27.9°F-2.3°C 59% 4.7 mph E7.6 kmh E 9.0 mph14.5 kmh 30.15 in1021.0 mb - 0.00 in0.0 mm 0.00 in0.0 mm
09:10 AM 41.6°F5.3°C 27.9°F-2.3°C 58% 4.4 mph ESE7.1 kmh ESE 9.0 mph14.5 kmh 30.15 in1021.0 mb - 0.00 in0.0 mm 0.00 in0.0 mm
09:20 AM 41.9°F5.5°C 27.8°F-2.3°C 57% 6.0 mph SE9.7 kmh SE 10.0 mph16.1 kmh 30.15 in1021.0 mb - 0.00 in0.0 mm 0.00 in0.0 mm
09:30 AM 42.6°F5.9°C 28.4°F-2.0°C 57% 2.8 mph SE4.5 kmh SE 5.0 mph8.0 kmh 30.16 in1021.3 mb - 0.00 in0.0 mm 0.00 in0.0 mm
09:40 AM 43.1°F6.2°C 28.0°F-2.2°C 55% 3.8 mph E6.1 kmh E 4.0 mph6.4 kmh 30.16 in1021.3 mb - 0.00 in0.0 mm 0.00 in0.0 mm
09:50 AM 43.9°F6.6°C 28.3°F-2.1°C 54% 3.8 mph SE6.1 kmh SE 5.0 mph8.0 kmh 30.16 in1021.3 mb - 0.00 in0.0 mm 0.00 in0.0 mm
10:00 AM 44.2°F6.8°C 28.2°F-2.1°C 53% 4.5 mph ESE7.2 kmh ESE 6.0 mph9.7 kmh 30.16 in1021.3 mb - 0.00 in0.0 mm 0.00 in0.0 mm
10:10 AM 44.8°F7.1°C 28.7°F-1.8°C 53% 4.6 mph E7.4 kmh E 9.0 mph14.5 kmh 30.16 in1021.3 mb - 0.00 in0.0 mm 0.00 in0.0 mm
10:20 AM 45.6°F7.6°C 29.4°F-1.4°C 53% 4.2 mph E6.8 kmh E 8.0 mph12.9 kmh 30.16 in1021.3 mb - 0.00 in0.0 mm 0.00 in0.0 mm
10:30 AM 45.1°F7.3°C 29.0°F-1.7°C 53% 4.6 mph E7.4 kmh E 7.0 mph11.3 kmh 30.16 in1021.3 mb - 0.00 in0.0 mm 0.00 in0.0 mm
10:40 AM 45.6°F7.6°C 28.5°F-1.9°C 51% 3.9 mph E6.3 kmh E 7.0 mph11.3 kmh 30.16 in1021.3 mb - 0.00 in0.0 mm 0.00 in0.0 mm
10:50 AM 46.3°F7.9°C 30.1°F-1.1°C 53% 2.7 mph SE4.3 kmh SE 6.0 mph9.7 kmh 30.16 in1021.3 mb - 0.00 in0.0 mm 0.00 in0.0 mm
11:00 AM 47.0°F8.3°C 29.3°F-1.5°C 50% 4.4 mph ESE7.1 kmh ESE 7.0 mph11.3 kmh 30.16 in1021.3 mb - 0.00 in0.0 mm 0.00 in0.0 mm
11:10 AM 47.6°F8.7°C 29.8°F-1.2°C 50% 2.9 mph SSE4.7 kmh SSE 7.0 mph11.3 kmh 30.16 in1021.3 mb - 0.00 in0.0 mm 0.00 in0.0 mm
11:20 AM 47.7°F8.7°C 29.5°F-1.4°C 49% 6.5 mph SE10.5 kmh SE 9.0 mph14.5 kmh 30.16 in1021.3 mb - 0.00 in0.0 mm 0.00 in0.0 mm
11:30 AM 48.2°F9.0°C 29.9°F-1.2°C 49% 4.3 mph SE6.9 kmh SE 9.0 mph14.5 kmh 30.16 in1021.3 mb - 0.00 in0.0 mm 0.00 in0.0 mm
11:40 AM 48.8°F9.3°C 30.5°F-0.8°C 49% 3.4 mph ESE5.5 kmh ESE 6.0 mph9.7 kmh 30.16 in1021.3 mb - 0.00 in0.0 mm 0.00 in0.0 mm
11:50 AM 49.3°F9.6°C 30.5°F-0.8°C 48% 4.6 mph E7.4 kmh E 7.0 mph11.3 kmh 30.16 in1021.3 mb - 0.00 in0.0 mm 0.00 in0.0 mm
12:00 PM 50.3°F10.2°C 30.8°F-0.7°C 47% 2.2 mph ESE3.5 kmh ESE 4.0 mph6.4 kmh 30.16 in1021.3 mb - 0.00 in0.0 mm 0.00 in0.0 mm
12:10 PM 50.5°F10.3°C 30.5°F-0.8°C 46% 3.7 mph SE6.0 kmh SE 6.0 mph9.7 kmh 30.16 in1021.3 mb - 0.00 in0.0 mm 0.00 in0.0 mm
12:20 PM 51.4°F10.8°C 31.8°F-0.1°C 47% 2.7 mph SE4.3 kmh SE 4.0 mph6.4 kmh 30.15 in1021.0 mb - 0.00 in0.0 mm 0.00 in0.0 mm
12:30 PM 51.5°F10.8°C 30.8°F-0.7°C 45% 3.9 mph SE6.3 kmh SE 7.0 mph11.3 kmh 30.15 in1021.0 mb - 0.00 in0.0 mm 0.00 in0.0 mm
12:40 PM 52.2°F11.2°C 32.5°F0.3°C 47% 1.6 mph ENE2.6 kmh ENE 8.0 mph12.9 kmh 30.15 in1021.0 mb - 0.00 in0.0 mm 0.00 in0.0 mm
12:50 PM 52.5°F11.4°C 32.3°F0.2°C 46% 2.8 mph E4.5 kmh E 6.0 mph9.7 kmh 30.15 in1021.0 mb - 0.00 in0.0 mm 0.00 in0.0 mm
01:00 PM 52.6°F11.4°C 32.4°F0.2°C 46% 4.1 mph SE6.6 kmh SE 6.0 mph9.7 kmh 30.15 in1021.0 mb - 0.00 in0.0 mm 0.00 in0.0 mm
01:10 PM 53.2°F11.8°C 33.0°F0.6°C 46% 2.5 mph E4.0 kmh E 6.0 mph9.7 kmh 30.15 in1021.0 mb - 0.00 in0.0 mm 0.00 in0.0 mm
01:20 PM 53.7°F12.1°C 32.3°F0.2°C 44% 4.3 mph ESE6.9 kmh ESE 7.0 mph11.3 kmh 30.15 in1021.0 mb - 0.00 in0.0 mm 0.00 in0.0 mm
01:30 PM 53.5°F11.9°C 32.7°F0.4°C 45% 4.9 mph ENE7.9 kmh ENE 8.0 mph12.9 kmh 30.14 in1020.7 mb - 0.00 in0.0 mm 0.00 in0.0 mm
01:40 PM 53.9°F12.2°C 32.5°F0.3°C 44% 5.2 mph E8.4 kmh E 10.0 mph16.1 kmh 30.14 in1020.7 mb - 0.00 in0.0 mm 0.00 in0.0 mm
01:50 PM 54.8°F12.7°C 33.3°F0.7°C 44% 4.8 mph ESE7.7 kmh ESE 9.0 mph14.5 kmh 30.14 in1020.7 mb - 0.00 in0.0 mm 0.00 in0.0 mm
02:00 PM 54.8°F12.7°C 33.8°F1.0°C 45% 2.2 mph ENE3.5 kmh ENE 8.0 mph12.9 kmh 30.13 in1020.3 mb - 0.00 in0.0 mm 0.00 in0.0 mm
02:10 PM 54.6°F12.6°C 33.1°F0.6°C 44% 4.0 mph NE6.4 kmh NE 13.0 mph20.9 kmh 30.13 in1020.3 mb - 0.00 in0.0 mm 0.00 in0.0 mm
02:20 PM 55.1°F12.8°C 34.2°F1.2°C 45% 4.6 mph E7.4 kmh E 6.0 mph9.7 kmh 30.13 in1020.3 mb - 0.00 in0.0 mm 0.00 in0.0 mm
02:30 PM 55.3°F12.9°C 34.3°F1.3°C 45% 5.2 mph ESE8.4 kmh ESE 7.0 mph11.3 kmh 30.12 in1020.0 mb - 0.00 in0.0 mm 0.00 in0.0 mm
02:40 PM 55.6°F13.1°C 34.0°F1.1°C 44% 4.4 mph SE7.1 kmh SE 6.0 mph9.7 kmh 30.12 in1020.0 mb - 0.00 in0.0 mm 0.00 in0.0 mm
02:50 PM 55.7°F13.2°C 34.7°F1.5°C 45% 4.5 mph E7.2 kmh E 8.0 mph12.9 kmh 30.12 in1020.0 mb - 0.00 in0.0 mm 0.00 in0.0 mm
03:00 PM 56.5°F13.6°C 35.4°F1.9°C 45% 3.8 mph SE6.1 kmh SE 6.0 mph9.7 kmh 30.11 in1019.6 mb - 0.00 in0.0 mm 0.00 in0.0 mm
03:10 PM 55.9°F13.3°C 34.3°F1.3°C 44% 4.6 mph SE7.4 kmh SE 8.0 mph12.9 kmh 30.11 in1019.6 mb - 0.00 in0.0 mm 0.00 in0.0 mm
03:20 PM 56.0°F13.3°C 35.0°F1.7°C 45% 4.6 mph E7.4 kmh E 10.0 mph16.1 kmh 30.11 in1019.6 mb - 0.00 in0.0 mm 0.00 in0.0 mm
03:30 PM 56.3°F13.5°C 35.2°F1.8°C 45% 5.4 mph E8.7 kmh E 9.0 mph14.5 kmh 30.11 in1019.6 mb - 0.00 in0.0 mm 0.00 in0.0 mm
03:40 PM 56.5°F13.6°C 35.4°F1.9°C 45% 4.0 mph E6.4 kmh E 4.0 mph6.4 kmh 30.10 in1019.3 mb - 0.00 in0.0 mm 0.00 in0.0 mm
03:50 PM 56.2°F13.4°C 34.6°F1.4°C 44% 4.8 mph SE7.7 kmh SE 6.0 mph9.7 kmh 30.11 in1019.6 mb - 0.00 in0.0 mm 0.00 in0.0 mm
04:00 PM 56.2°F13.4°C 34.5°F1.4°C 44% 4.6 mph E7.4 kmh E 8.0 mph12.9 kmh 30.10 in1019.3 mb - 0.00 in0.0 mm 0.00 in0.0 mm
04:10 PM 56.5°F13.6°C 34.8°F1.6°C 44% 4.1 mph SE6.6 kmh SE 6.0 mph9.7 kmh 30.10 in1019.3 mb - 0.00 in0.0 mm 0.00 in0.0 mm
04:20 PM 56.6°F13.7°C 35.5°F1.9°C 45% 3.9 mph E6.3 kmh E 7.0 mph11.3 kmh 30.10 in1019.3 mb - 0.00 in0.0 mm 0.00 in0.0 mm
04:30 PM 56.5°F13.6°C 34.9°F1.6°C 44% 5.4 mph E8.7 kmh E 8.0 mph12.9 kmh 30.10 in1019.3 mb - 0.00 in0.0 mm 0.00 in0.0 mm
04:40 PM 56.7°F13.7°C 36.1°F2.3°C 46% 3.9 mph E6.3 kmh E 6.0 mph9.7 kmh 30.10 in1019.3 mb - 0.00 in0.0 mm 0.00 in0.0 mm
04:50 PM 56.6°F13.7°C 35.5°F1.9°C 45% 3.6 mph SE5.8 kmh SE 4.0 mph6.4 kmh 30.10 in1019.3 mb - 0.00 in0.0 mm 0.00 in0.0 mm
05:00 PM 57.1°F13.9°C 35.9°F2.2°C 45% 4.3 mph SSE6.9 kmh SSE 8.0 mph12.9 kmh 30.10 in1019.3 mb - 0.00 in0.0 mm 0.00 in0.0 mm
05:10 PM 57.2°F14.0°C 36.0°F2.2°C 45% 4.6 mph ESE7.4 kmh ESE 9.0 mph14.5 kmh 30.09 in1019.0 mb - 0.00 in0.0 mm 0.00 in0.0 mm
05:20 PM 57.1°F13.9°C 36.0°F2.2°C 45% 2.6 mph SE4.2 kmh SE 5.0 mph8.0 kmh 30.09 in1019.0 mb - 0.00 in0.0 mm 0.00 in0.0 mm
05:30 PM 57.0°F13.9°C 35.9°F2.2°C 45% 4.3 mph E6.9 kmh E 6.0 mph9.7 kmh 30.09 in1019.0 mb - 0.00 in0.0 mm 0.00 in0.0 mm
05:40 PM 57.0°F13.9°C 35.9°F2.2°C 45% 4.9 mph ENE7.9 kmh ENE 8.0 mph12.9 kmh 30.09 in1019.0 mb - 0.00 in0.0 mm 0.00 in0.0 mm
05:50 PM 56.4°F13.6°C 35.3°F1.8°C 45% 6.7 mph E10.8 kmh E 10.0 mph16.1 kmh 30.09 in1019.0 mb - 0.00 in0.0 mm 0.00 in0.0 mm
06:00 PM 56.3°F13.5°C 35.8°F2.1°C 46% 3.4 mph E5.5 kmh E 5.0 mph8.0 kmh 30.10 in1019.3 mb - 0.00 in0.0 mm 0.00 in0.0 mm
06:10 PM 56.0°F13.3°C 36.1°F2.3°C 47% 3.7 mph E6.0 kmh E 5.0 mph8.0 kmh 30.10 in1019.3 mb - 0.00 in0.0 mm 0.00 in0.0 mm
06:20 PM 55.8°F13.2°C 35.9°F2.2°C 47% 2.4 mph E3.9 kmh E 3.0 mph4.8 kmh 30.10 in1019.3 mb - 0.00 in0.0 mm 0.00 in0.0 mm
06:30 PM 55.4°F13.0°C 36.0°F2.2°C 48% 4.0 mph ESE6.4 kmh ESE 7.0 mph11.3 kmh 30.10 in1019.3 mb - 0.00 in0.0 mm 0.00 in0.0 mm
06:40 PM 55.0°F12.8°C 35.7°F2.1°C 48% 2.6 mph E4.2 kmh E 3.0 mph4.8 kmh 30.10 in1019.3 mb - 0.00 in0.0 mm 0.00 in0.0 mm
06:50 PM 54.6°F12.6°C 35.8°F2.1°C 49% 4.5 mph ENE7.2 kmh ENE 7.0 mph11.3 kmh 30.10 in1019.3 mb - 0.00 in0.0 mm 0.00 in0.0 mm
07:00 PM 54.5°F12.5°C 35.7°F2.1°C 49% 4.3 mph S6.9 kmh S 7.0 mph11.3 kmh 30.10 in1019.3 mb - 0.00 in0.0 mm 0.00 in0.0 mm
07:10 PM 54.3°F12.4°C 35.6°F2.0°C 49% 3.9 mph E6.3 kmh E 7.0 mph11.3 kmh 30.10 in1019.3 mb - 0.00 in0.0 mm 0.00 in0.0 mm
07:20 PM 53.8°F12.1°C 35.6°F2.0°C 50% 3.0 mph E4.8 kmh E 7.0 mph11.3 kmh 30.09 in1019.0 mb - 0.00 in0.0 mm 0.00 in0.0 mm
07:30 PM 53.0°F11.7°C 35.3°F1.8°C 51% 4.4 mph ESE7.1 kmh ESE 7.0 mph11.3 kmh 30.09 in1019.0 mb - 0.00 in0.0 mm 0.00 in0.0 mm
07:40 PM 52.3°F11.3°C 35.2°F1.8°C 52% 4.4 mph ESE7.1 kmh ESE 10.0 mph16.1 kmh 30.08 in1018.6 mb - 0.00 in0.0 mm 0.00 in0.0 mm
07:50 PM 51.8°F11.0°C 35.2°F1.8°C 53% 1.6 mph SSE2.6 kmh SSE 3.0 mph4.8 kmh 30.08 in1018.6 mb - 0.00 in0.0 mm 0.00 in0.0 mm
08:00 PM 51.2°F10.7°C 35.1°F1.7°C 54% 2.5 mph SE4.0 kmh SE 3.0 mph4.8 kmh 30.08 in1018.6 mb - 0.00 in0.0 mm 0.00 in0.0 mm
08:10 PM 50.7°F10.4°C 35.1°F1.7°C 55% 2.5 mph SE4.0 kmh SE 5.0 mph8.0 kmh 30.08 in1018.6 mb - 0.00 in0.0 mm 0.00 in0.0 mm
08:20 PM 50.4°F10.2°C 34.8°F1.6°C 55% 2.7 mph E4.3 kmh E 5.0 mph8.0 kmh 30.09 in1019.0 mb - 0.00 in0.0 mm 0.00 in0.0 mm
08:30 PM 49.9°F9.9°C 34.9°F1.6°C 56% 1.1 mph E1.8 kmh E 4.0 mph6.4 kmh 30.09 in1019.0 mb - 0.00 in0.0 mm 0.00 in0.0 mm
08:40 PM 49.5°F9.7°C 34.9°F1.6°C 57% 1.5 mph SE2.4 kmh SE 3.0 mph4.8 kmh 30.09 in1019.0 mb - 0.00 in0.0 mm 0.00 in0.0 mm
08:50 PM 49.1°F9.5°C 34.9°F1.6°C 58% 1.3 mph ESE2.1 kmh ESE 3.0 mph4.8 kmh 30.09 in1019.0 mb - 0.00 in0.0 mm 0.00 in0.0 mm
09:00 PM 48.6°F9.2°C 34.9°F1.6°C 59% 2.3 mph E3.7 kmh E 7.0 mph11.3 kmh 30.09 in1019.0 mb - 0.00 in0.0 mm 0.00 in0.0 mm
09:10 PM 48.3°F9.1°C 35.0°F1.7°C 60% 1.6 mph SE2.6 kmh SE 4.0 mph6.4 kmh 30.09 in1019.0 mb - 0.00 in0.0 mm 0.00 in0.0 mm
09:20 PM 48.1°F8.9°C 34.8°F1.6°C 60% 3.4 mph SSW5.5 kmh SSW 6.0 mph9.7 kmh 30.09 in1019.0 mb - 0.00 in0.0 mm 0.00 in0.0 mm
09:30 PM 47.9°F8.8°C 34.7°F1.5°C 60% 1.2 mph SE1.9 kmh SE 3.0 mph4.8 kmh 30.09 in1019.0 mb - 0.00 in0.0 mm 0.00 in0.0 mm
09:40 PM 47.5°F8.6°C 34.7°F1.5°C 61% 1.7 mph ESE2.7 kmh ESE 3.0 mph4.8 kmh 30.10 in1019.3 mb - 0.00 in0.0 mm 0.00 in0.0 mm
09:50 PM 47.3°F8.5°C 34.9°F1.6°C 62% 2.2 mph ESE3.5 kmh ESE 4.0 mph6.4 kmh 30.10 in1019.3 mb - 0.00 in0.0 mm 0.00 in0.0 mm
10:00 PM 47.1°F8.4°C 34.7°F1.5°C 62% 2.3 mph E3.7 kmh E 4.0 mph6.4 kmh 30.10 in1019.3 mb - 0.00 in0.0 mm 0.00 in0.0 mm
10:10 PM 46.8°F8.2°C 34.9°F1.6°C 63% 1.0 mph SSE1.6 kmh SSE 3.0 mph4.8 kmh 30.09 in1019.0 mb - 0.00 in0.0 mm 0.00 in0.0 mm
10:20 PM 46.5°F8.1°C 35.0°F1.7°C 64% 2.1 mph E3.4 kmh E 5.0 mph8.0 kmh 30.09 in1019.0 mb - 0.00 in0.0 mm 0.00 in0.0 mm
10:30 PM 46.2°F7.9°C 34.7°F1.5°C 64% 4.7 mph E7.6 kmh E 6.0 mph9.7 kmh 30.09 in1019.0 mb - 0.00 in0.0 mm 0.00 in0.0 mm
10:40 PM 45.9°F7.7°C 34.8°F1.6°C 65% 3.4 mph E5.5 kmh E 11.0 mph17.7 kmh 30.09 in1019.0 mb - 0.00 in0.0 mm 0.00 in0.0 mm
10:50 PM 45.6°F7.6°C 34.9°F1.6°C 66% 2.7 mph ESE4.3 kmh ESE 5.0 mph8.0 kmh 30.09 in1019.0 mb - 0.00 in0.0 mm 0.00 in0.0 mm
11:00 PM 45.3°F7.4°C 34.6°F1.4°C 66% 1.5 mph ESE2.4 kmh ESE 3.0 mph4.8 kmh 30.09 in1019.0 mb - 0.00 in0.0 mm 0.00 in0.0 mm
11:10 PM 45.0°F7.2°C 34.7°F1.5°C 67% 2.0 mph ESE3.2 kmh ESE 3.0 mph4.8 kmh 30.08 in1018.6 mb - 0.00 in0.0 mm 0.00 in0.0 mm
11:20 PM 44.6°F7.0°C 34.7°F1.5°C 68% 3.2 mph ESE5.1 kmh ESE 8.0 mph12.9 kmh 30.07 in1018.3 mb - 0.00 in0.0 mm 0.00 in0.0 mm
11:30 PM 44.3°F6.8°C 34.8°F1.6°C 69% 2.1 mph E3.4 kmh E 4.0 mph6.4 kmh 30.07 in1018.3 mb - 0.00 in0.0 mm 0.00 in0.0 mm
11:40 PM 44.1°F6.7°C 34.9°F1.6°C 70% 1.8 mph SE2.9 kmh SE 3.0 mph4.8 kmh 30.07 in1018.3 mb - 0.00 in0.0 mm 0.00 in0.0 mm
11:50 PM 43.9°F6.6°C 34.7°F1.5°C 70% 2.5 mph SE4.0 kmh SE 3.0 mph4.8 kmh 30.06 in1017.9 mb - 0.00 in0.0 mm 0.00 in0.0 mm